Time;durP1;ratioP1;P1;durP2;ratioP2;P2;SDS_P1;SDS_P2;PMS_P1;PMS_P2;Temp;Humidity;BMP_temperature;BMP_pressure;BME280_temperature;BME280_humidity;BME280_pressure;Samples;Min_cycle;Max_cycle;Signal;HPM_P1;HPM_P2
2021/11/18 00:00:54;;;;;;;124.87;66.45;;;;;;;-5.06;68.46;102035.19;1782621;80;20971;-74
2021/11/18 00:03:21;;;;;;;131.07;66.75;;;;;;;-5.05;68.29;102033.06;1782760;80;21186;-74
2021/11/18 00:05:48;;;;;;;123.35;65.97;;;;;;;-5.05;68.30;102031.38;1782849;80;20916;-72
2021/11/18 00:08:15;;;;;;;125.87;66.05;;;;;;;-5.04;68.18;102034.81;1782695;80;20856;-73
2021/11/18 00:10:46;;;;;;;127.47;64.70;;;;;;;-5.04;68.15;102029.70;1782936;80;20983;-73
2021/11/18 00:13:16;;;;;;;136.07;66.28;;;;;;;-5.08;68.32;102028.74;1782722;80;20916;-73
2021/11/18 00:15:44;;;;;;;127.20;65.97;;;;;;;-5.07;68.41;102036.88;1782891;80;21091;-73
2021/11/18 00:18:15;;;;;;;138.75;74.03;;;;;;;-5.04;68.24;102036.95;1782459;80;20948;-74
2021/11/18 00:20:48;;;;;;;131.10;69.20;;;;;;;-5.01;68.08;102032.33;1781090;80;20920;-74
2021/11/18 00:23:15;;;;;;;144.43;67.55;;;;;;;-5.01;67.69;102036.17;1779719;80;20916;-73
2021/11/18 00:25:43;;;;;;;139.70;69.05;;;;;;;-5.03;67.66;102031.42;1779878;80;20889;-74
2021/11/18 00:28:10;;;;;;;135.65;66.92;;;;;;;-5.03;67.58;102031.00;1779684;80;21127;-73
2021/11/18 00:30:39;;;;;;;126.85;62.13;;;;;;;-5.04;67.56;102030.98;1779755;80;20893;-73
2021/11/18 00:33:06;;;;;;;157.07;70.65;;;;;;;-5.06;67.60;102028.38;1779789;80;21001;-74
2021/11/18 00:35:33;;;;;;;163.72;70.10;;;;;;;-5.13;67.58;102032.88;1779903;80;20885;-73
2021/11/18 00:38:00;;;;;;;158.82;74.72;;;;;;;-5.18;67.59;102027.16;1779759;80;20967;-73
2021/11/18 00:40:30;;;;;;;165.32;74.10;;;;;;;-5.26;67.55;102023.14;1779923;80;21504;-73
2021/11/18 00:42:58;;;;;;;126.55;62.13;;;;;;;-5.30;67.59;102028.98;1779758;80;20845;-74
2021/11/18 00:45:25;;;;;;;118.60;54.60;;;;;;;-5.36;67.72;102027.52;1780027;80;21478;-73
2021/11/18 00:47:55;;;;;;;100.50;49.75;;;;;;;-5.41;68.00;102027.40;1779807;79;20908;-73
2021/11/18 00:50:29;;;;;;;120.45;51.37;;;;;;;-5.44;68.58;102025.63;1779893;80;20975;-74
2021/11/18 00:52:56;;;;;;;126.20;55.03;;;;;;;-5.44;69.35;102025.63;1779951;80;21134;-73
2021/11/18 00:55:24;;;;;;;128.97;56.77;;;;;;;-5.37;69.82;102030.50;1780205;80;20931;-74
2021/11/18 00:57:54;;;;;;;119.90;57.08;;;;;;;-5.34;70.00;102029.72;1780049;80;20928;-73
2021/11/18 01:00:24;;;;;;;132.85;58.13;;;;;;;-5.29;70.45;102026.87;1779646;80;21011;-74
2021/11/18 01:02:51;;;;;;;121.67;57.85;;;;;;;-5.30;70.68;102024.73;1779703;80;20944;-73
2021/11/18 01:05:20;;;;;;;151.00;64.50;;;;;;;-5.28;70.85;102029.89;1779644;80;21168;-74
2021/11/18 01:07:47;;;;;;;128.20;60.00;;;;;;;-5.28;70.80;102029.48;1779759;79;20989;-73
2021/11/18 01:10:15;;;;;;;132.40;60.70;;;;;;;-5.28;70.49;102026.92;1779698;80;21385;-74
2021/11/18 01:12:43;;;;;;;120.30;54.58;;;;;;;-5.33;70.63;102031.05;1779631;80;20971;-74
2021/11/18 01:15:13;;;;;;;108.87;52.27;;;;;;;-5.41;70.72;102026.13;1779844;80;21087;-74
2021/11/18 01:17:43;;;;;;;130.05;56.63;;;;;;;-5.45;71.36;102030.69;1779679;80;20920;-71
2021/11/18 01:20:11;;;;;;;123.10;56.15;;;;;;;-5.43;71.94;102029.05;1779545;80;21026;-74
2021/11/18 01:22:39;;;;;;;121.17;52.38;;;;;;;-5.39;71.55;102023.20;1779747;79;20845;-73
2021/11/18 01:25:07;;;;;;;123.07;54.25;;;;;;;-5.38;71.12;102025.34;1779658;80;20974;-73
2021/11/18 01:27:36;;;;;;;116.22;53.23;;;;;;;-5.37;70.67;102021.97;1778910;79;21381;-72
2021/11/18 01:30:16;;;;;;;124.42;56.00;;;;;;;-5.41;70.55;102023.14;1778727;80;21154;-73
2021/11/18 01:32:43;;;;;;;119.28;54.55;;;;;;;-5.41;70.61;102014.20;1780089;79;20967;-72
2021/11/18 01:35:10;;;;;;;139.05;62.23;;;;;;;-5.37;70.41;102021.97;1779710;80;20943;-74
2021/11/18 01:37:37;;;;;;;129.40;61.15;;;;;;;-5.35;70.24;102013.52;1780044;80;20931;-73
2021/11/18 01:40:06;;;;;;;133.27;56.77;;;;;;;-5.33;69.89;102023.80;1779683;79;21460;-74
2021/11/18 01:42:33;;;;;;;110.42;53.20;;;;;;;-5.33;69.68;102019.96;1779970;80;21124;-72
2021/11/18 01:45:00;;;;;;;127.20;55.33;;;;;;;-5.34;69.53;102020.77;1779683;80;20968;-73
2021/11/18 01:47:27;;;;;;;134.82;58.48;;;;;;;-5.33;69.29;102019.96;1780022;80;21048;-73
2021/11/18 01:49:54;;;;;;;125.90;54.42;;;;;;;-5.34;69.14;102024.60;1779665;80;20908;-71
2021/11/18 01:52:23;;;;;;;125.35;57.20;;;;;;;-5.34;68.92;102024.60;1780133;80;20893;-72
2021/11/18 01:54:50;;;;;;;109.45;51.65;;;;;;;-5.36;68.68;102018.58;1779605;80;21089;-72
2021/11/18 01:57:25;;;;;;;108.57;51.33;;;;;;;-5.39;68.40;102020.64;1779705;80;20983;-74
2021/11/18 01:59:55;;;;;;;114.10;53.23;;;;;;;-5.41;68.26;102019.73;1778464;80;21481;-73
2021/11/18 02:02:30;;;;;;;108.05;50.50;;;;;;;-5.45;67.95;102014.07;1769645;80;21026;-73
2021/11/18 02:05:27;;;;;;;103.53;47.98;;;;;;;-5.50;67.88;102025.45;1762178;80;21350;-74
2021/11/18 02:08:01;;;;;;;109.48;50.83;;;;;;;-5.52;67.71;102022.39;1779679;80;20975;-73
2021/11/18 02:10:37;;;;;;;102.60;50.73;;;;;;;-5.66;67.33;102015.62;1779244;80;21480;-73
2021/11/18 02:13:05;;;;;;;107.97;50.23;;;;;;;-5.79;67.27;102011.83;1780021;80;20928;-72
2021/11/18 02:15:38;;;;;;;104.03;50.10;;;;;;;-5.91;67.49;102005.95;1779621;80;20967;-73
2021/11/18 02:18:18;;;;;;;92.80;48.13;;;;;;;-5.95;67.74;102004.16;1772731;79;21073;-74
2021/11/18 02:20:48;;;;;;;99.03;50.08;;;;;;;-5.94;68.14;102002.02;1779481;80;21153;-73
2021/11/18 02:23:21;;;;;;;110.70;51.50;;;;;;;-5.88;68.20;101997.52;1779488;80;20936;-73
2021/11/18 02:25:52;;;;;;;103.87;47.50;;;;;;;-5.83;68.16;101995.95;1779989;80;20888;-73
2021/11/18 02:28:21;;;;;;;133.52;55.70;;;;;;;-5.78;68.01;101999.91;1779551;80;20900;-73
2021/11/18 02:30:49;;;;;;;115.35;53.23;;;;;;;-5.78;67.92;101998.64;1780035;80;20967;-74
2021/11/18 02:33:17;;;;;;;109.10;52.55;;;;;;;-5.83;68.02;101995.53;1750994;80;21161;-73
2021/11/18 02:35:47;;;;;;;115.42;49.20;;;;;;;-5.86;68.02;101994.18;1779484;80;20956;-73
2021/11/18 02:38:15;;;;;;;112.00;51.40;;;;;;;-5.86;67.92;101999.28;1779871;80;21385;-72
2021/11/18 02:40:42;;;;;;;108.07;53.42;;;;;;;-5.83;67.89;102001.92;1779865;80;20940;-73
2021/11/18 02:43:17;;;;;;;95.40;47.88;;;;;;;-5.80;67.65;102001.55;1779775;79;20936;-74
2021/11/18 02:45:46;;;;;;;97.12;46.02;;;;;;;-5.81;67.38;102003.67;1780095;80;21750;-74
2021/11/18 02:48:16;;;;;;;91.47;44.83;;;;;;;-5.85;67.18;102000.14;1779657;80;20940;-73
2021/11/18 02:50:48;;;;;;;90.15;44.18;;;;;;;-5.86;67.02;102004.39;1750860;80;21022;-73
2021/11/18 02:53:17;;;;;;;103.83;45.12;;;;;;;-5.87;67.05;102009.06;1779657;80;20928;-73
2021/11/18 02:55:47;;;;;;;88.95;43.58;;;;;;;-5.90;66.96;102002.56;1779865;79;21386;-72
2021/11/18 02:58:14;;;;;;;87.27;44.83;;;;;;;-5.96;66.53;102005.38;1779759;79;21816;-73
2021/11/18 03:01:01;;;;;;;87.35;40.35;;;;;;;-6.07;66.62;102010.16;1780024;80;21410;-73
2021/11/18 03:03:28;;;;;;;85.72;40.70;;;;;;;-6.16;66.90;102011.16;1779777;80;20923;-73
2021/11/18 03:05:56;;;;;;;83.90;42.50;;;;;;;-6.22;67.27;102009.30;1779695;80;20904;-74
2021/11/18 03:08:24;;;;;;;86.02;41.77;;;;;;;-6.22;67.39;102010.57;1779565;79;20938;-73
2021/11/18 03:10:52;;;;;;;88.33;43.87;;;;;;;-6.19;67.60;102008.52;1779669;80;21135;-72
2021/11/18 03:13:21;;;;;;;96.37;43.80;;;;;;;-6.18;67.69;102007.69;1779599;80;21547;-72
2021/11/18 03:15:48;;;;;;;85.57;44.23;;;;;;;-6.23;67.75;102009.23;1779484;80;20888;-74
2021/11/18 03:18:15;;;;;;;92.40;47.27;;;;;;;-6.31;68.04;101997.11;1779629;80;21375;-73
2021/11/18 03:20:44;;;;;;;98.92;49.38;;;;;;;-6.34;68.50;101999.97;1779627;80;20912;-73
2021/11/18 03:23:11;;;;;;;225.25;90.92;;;;;;;-6.36;68.82;102010.11;1782747;80;21497;-74
2021/11/18 03:25:38;;;;;;;209.85;89.32;;;;;;;-6.37;68.68;102007.53;1782612;80;20856;-74
2021/11/18 03:28:07;;;;;;;221.62;83.10;;;;;;;-6.35;68.55;102004.21;1781155;80;20833;-73
2021/11/18 03:30:39;;;;;;;133.10;56.37;;;;;;;-6.34;68.26;102000.83;1782905;80;20968;-73
2021/11/18 03:35:54;;;;;;;115.17;51.33;;;;;;;-6.24;67.83;101997.31;1798598;79;22668;-73
2021/11/18 03:38:26;;;;;;;107.17;45.98;;;;;;;-6.30;67.57;101994.14;1758553;80;20954;-74
2021/11/18 03:41:04;;;;;;;105.60;45.67;;;;;;;-6.34;67.18;101998.27;1757477;80;21524;-73
2021/11/18 03:43:39;;;;;;;141.43;56.85;;;;;;;-6.41;67.16;101995.08;1755929;80;20904;-73
2021/11/18 03:46:06;;;;;;;140.65;56.98;;;;;;;-6.46;67.24;101994.07;1749092;82;20987;-73
2021/11/18 03:48:34;;;;;;;118.37;49.70;;;;;;;-6.50;67.51;101999.89;1749983;82;21496;-74
2021/11/18 03:51:02;;;;;;;76.72;39.15;;;;;;;-6.55;67.61;101994.64;1749850;81;20896;-73
2021/11/18 03:53:33;;;;;;;85.50;38.13;;;;;;;-6.57;67.80;101992.86;1688371;82;21795;-73
2021/11/18 03:55:58;;;;;;;75.60;36.73;;;;;;;-6.60;67.95;102001.29;1709147;84;20976;-75
2021/11/18 03:58:25;;;;;;;87.95;38.48;;;;;;;-6.58;68.14;101999.66;1709453;84;20868;-73
2021/11/18 04:00:52;;;;;;;87.37;42.03;;;;;;;-6.51;68.17;101996.89;1709284;84;20884;-74
2021/11/18 04:03:19;;;;;;;81.17;40.28;;;;;;;-6.46;68.06;102001.31;1680955;84;20959;-73
2021/11/18 04:05:48;;;;;;;85.35;38.98;;;;;;;-6.41;67.74;102002.73;1709266;84;21760;-73
2021/11/18 04:08:15;;;;;;;78.17;38.78;;;;;;;-6.40;67.49;101998.48;1709219;84;20920;-73
2021/11/18 04:10:43;;;;;;;93.67;41.80;;;;;;;-6.41;67.35;101998.91;1709428;84;20960;-74
2021/11/18 04:13:10;;;;;;;95.95;46.73;;;;;;;-6.40;67.28;101997.21;1709444;82;21453;-73
2021/11/18 04:15:38;;;;;;;107.25;49.50;;;;;;;-6.38;67.25;101997.74;1709313;82;20987;-75
2021/11/18 04:18:06;;;;;;;149.47;64.17;;;;;;;-6.35;67.22;101990.17;1709900;84;21135;-74
2021/11/18 04:20:35;;;;;;;125.72;54.98;;;;;;;-6.34;67.17;101982.95;1708828;84;20903;-75
2021/11/18 04:23:04;;;;;;;126.53;65.45;;;;;;;-6.31;67.25;101981.80;1681440;84;20983;-74
2021/11/18 04:25:33;;;;;;;145.17;67.50;;;;;;;-6.29;67.27;101987.81;1709299;82;20959;-74
2021/11/18 04:28:01;;;;;;;139.07;64.58;;;;;;;-6.31;67.11;101986.91;1709146;82;20907;-74
2021/11/18 04:30:36;;;;;;;127.70;56.95;;;;;;;-6.33;67.10;101978.33;1709362;82;21163;-74
2021/11/18 04:33:07;;;;;;;122.42;60.67;;;;;;;-6.29;67.20;101983.09;1705422;84;20983;-82
2021/11/18 04:35:34;;;;;;;123.47;56.53;;;;;;;-6.26;66.92;101983.22;1703326;83;20967;-74
2021/11/18 04:38:01;;;;;;;112.50;51.02;;;;;;;-6.26;66.66;101988.31;1712148;82;20998;-75
2021/11/18 04:40:32;;;;;;;122.17;55.83;;;;;;;-6.24;66.56;101980.72;1702235;84;20936;-73
2021/11/18 04:43:00;;;;;;;119.15;59.20;;;;;;;-6.22;66.54;101984.16;1712229;82;21140;-75
2021/11/18 04:45:27;;;;;;;103.05;52.20;;;;;;;-6.22;66.31;101986.70;1675864;84;20928;-75
2021/11/18 04:47:56;;;;;;;96.57;47.62;;;;;;;-6.23;66.20;101987.54;1686195;85;21043;-73
2021/11/18 04:50:24;;;;;;;90.75;43.42;;;;;;;-6.30;66.25;101991.59;1711669;82;20896;-74
2021/11/18 04:52:53;;;;;;;95.65;42.27;;;;;;;-6.33;66.44;101991.51;1701556;84;20964;-73
2021/11/18 04:55:23;;;;;;;96.70;46.15;;;;;;;-6.32;66.64;101991.95;1711512;82;21148;-75
2021/11/18 04:57:50;;;;;;;101.72;46.95;;;;;;;-6.31;66.70;101986.05;1701813;84;20960;-75
2021/11/18 05:00:22;;;;;;;97.15;50.10;;;;;;;-6.28;66.82;101983.57;1711290;82;20936;-76
2021/11/18 05:02:49;;;;;;;99.07;42.25;;;;;;;-6.24;66.68;101985.41;1701332;84;21003;-76
2021/11/18 05:05:18;;;;;;;99.87;46.45;;;;;;;-6.23;66.89;101980.74;1711855;82;21471;-75
2021/11/18 05:07:45;;;;;;;98.30;44.05;;;;;;;-6.18;66.69;101986.88;1701950;84;21140;-75
2021/11/18 05:10:13;;;;;;;90.55;43.85;;;;;;;-6.16;66.53;101986.91;1711125;82;21418;-75
2021/11/18 05:12:41;;;;;;;93.42;48.90;;;;;;;-6.15;66.55;101987.38;1701864;84;21027;-75
2021/11/18 05:15:11;;;;;;;87.22;45.58;;;;;;;-6.13;66.51;101987.88;1684941;83;20959;-75
2021/11/18 05:17:39;;;;;;;99.52;46.05;;;;;;;-6.11;66.49;101993.04;1701870;84;20928;-76
2021/11/18 05:20:07;;;;;;;115.08;51.60;;;;;;;-6.09;66.56;101996.47;1711241;82;21358;-75
2021/11/18 05:22:34;;;;;;;108.70;54.27;;;;;;;-6.08;66.74;101996.95;1681372;84;21358;-76
2021/11/18 05:25:02;;;;;;;98.97;49.85;;;;;;;-6.03;66.91;101993.25;1701671;84;21255;-76
2021/11/18 05:27:29;;;;;;;97.78;46.40;;;;;;;-6.01;66.78;101985.23;1684831;83;20947;-76
2021/11/18 05:29:56;;;;;;;98.10;46.80;;;;;;;-5.99;66.81;101991.26;1701861;84;21564;-75
2021/11/18 05:32:23;;;;;;;110.40;48.68;;;;;;;-5.95;66.92;101994.36;1711381;82;21069;-76
2021/11/18 05:34:59;;;;;;;96.02;44.70;;;;;;;-5.88;67.02;101991.98;1704102;83;20993;-76
2021/11/18 05:37:26;;;;;;;91.47;43.73;;;;;;;-5.76;66.89;101992.75;1721665;82;20994;-75
2021/11/18 05:39:53;;;;;;;93.62;41.48;;;;;;;-5.70;66.64;101995.48;1667043;83;20959;-76
2021/11/18 05:42:20;;;;;;;85.92;40.58;;;;;;;-5.63;66.20;102000.36;1693028;83;21043;-76
2021/11/18 05:44:49;;;;;;;83.37;40.65;;;;;;;-5.62;66.04;102005.95;1691589;83;21949;-76
2021/11/18 05:47:21;;;;;;;101.75;43.55;;;;;;;-5.57;66.19;102001.83;1721547;82;21109;-76
2021/11/18 05:49:48;;;;;;;95.60;43.63;;;;;;;-5.54;66.24;102002.31;1693019;83;20979;-75
2021/11/18 05:52:16;;;;;;;89.92;46.88;;;;;;;-5.51;66.13;102010.09;1721711;82;21448;-75
2021/11/18 05:54:43;;;;;;;104.67;48.33;;;;;;;-5.50;66.22;102007.55;1687510;83;21029;-76
2021/11/18 05:57:11;;;;;;;97.70;47.03;;;;;;;-5.44;66.37;102001.34;1703498;84;21103;-76
2021/11/18 05:59:38;;;;;;;93.78;44.42;;;;;;;-5.38;66.47;101996.83;1703454;82;20932;-73
2021/11/18 06:02:05;;;;;;;95.00;47.20;;;;;;;-5.34;66.30;101998.62;1721860;82;20895;-76
2021/11/18 06:04:32;;;;;;;96.75;51.28;;;;;;;-5.35;66.59;101994.34;1687500;83;20930;-74
2021/11/18 06:07:02;;;;;;;110.63;49.08;;;;;;;-5.33;66.80;102002.07;1703167;83;20923;-74
2021/11/18 06:09:29;;;;;;;105.15;52.90;;;;;;;-5.30;67.22;101998.30;1721790;82;21135;-75
2021/11/18 06:11:57;;;;;;;109.05;50.35;;;;;;;-5.19;67.54;102004.57;1687387;83;21595;-75
2021/11/18 06:14:24;;;;;;;106.87;50.55;;;;;;;-5.05;67.67;102004.94;1687456;83;21047;-75
2021/11/18 06:16:52;;;;;;;96.15;51.13;;;;;;;-4.92;67.68;102003.15;1703671;84;20904;-75
2021/11/18 06:19:19;;;;;;;98.15;52.48;;;;;;;-4.86;67.71;102004.59;1703687;84;21389;-74
2021/11/18 06:21:49;;;;;;;104.05;47.53;;;;;;;-4.84;67.91;101991.85;1703337;82;21318;-75
2021/11/18 06:24:17;;;;;;;98.82;44.75;;;;;;;-4.71;68.25;101996.84;1703396;84;21046;-75
2021/11/18 06:26:50;;;;;;;97.25;47.73;;;;;;;-4.55;68.47;101986.59;1703556;82;21025;-74
2021/11/18 06:29:22;;;;;;;105.58;49.55;;;;;;;-4.42;68.67;101989.89;1703494;84;21011;-75
2021/11/18 06:31:54;;;;;;;104.27;48.70;;;;;;;-4.27;68.71;101991.92;1704105;84;21007;-74
2021/11/18 06:34:21;;;;;;;105.72;49.65;;;;;;;-4.17;68.89;101981.08;1677419;84;21145;-74
2021/11/18 06:36:48;;;;;;;108.70;52.27;;;;;;;-4.07;68.98;101981.74;1705131;83;20924;-74
2021/11/18 06:39:15;;;;;;;103.85;53.40;;;;;;;-4.01;69.32;101975.45;1666189;84;20893;-75
2021/11/18 06:41:42;;;;;;;103.55;55.35;;;;;;;-3.93;69.60;101975.63;1696428;84;20932;-74
2021/11/18 06:44:10;;;;;;;128.27;57.23;;;;;;;-3.85;69.96;101974.50;1696057;84;20952;-74
2021/11/18 06:46:36;;;;;;;116.28;53.95;;;;;;;-3.74;70.13;101981.99;1696465;84;21102;-73
2021/11/18 06:49:04;;;;;;;113.88;56.75;;;;;;;-3.63;70.28;101977.09;1696569;83;20912;-75
2021/11/18 06:51:32;;;;;;;100.12;52.45;;;;;;;-3.50;70.34;101975.64;1696529;84;20952;-75
2021/11/18 06:53:59;;;;;;;110.65;55.92;;;;;;;-3.41;70.29;101971.55;1696254;84;21517;-77
2021/11/18 06:56:28;;;;;;;97.57;52.93;;;;;;;-3.32;70.37;101967.02;1696415;84;21120;-74
2021/11/18 06:58:55;;;;;;;114.35;53.73;;;;;;;-3.26;70.63;101958.16;1696110;84;21490;-73
2021/11/18 07:01:23;;;;;;;102.90;53.42;;;;;;;-3.17;70.85;101963.88;1696387;83;20964;-74
2021/11/18 07:03:51;;;;;;;102.67;54.38;;;;;;;-3.01;71.15;101963.30;1696176;84;20948;-73
2021/11/18 07:06:20;;;;;;;112.10;52.60;;;;;;;-2.90;71.35;101963.50;1696140;84;20917;-72
2021/11/18 07:08:48;;;;;;;100.82;52.73;;;;;;;-2.73;71.42;101955.66;1696207;84;21545;-75
2021/11/18 07:11:16;;;;;;;98.65;55.30;;;;;;;-2.59;71.62;101957.16;1696538;84;21123;-74
2021/11/18 07:13:43;;;;;;;103.85;54.75;;;;;;;-2.44;71.67;101953.12;1696298;84;20948;-76
2021/11/18 07:16:15;;;;;;;100.80;55.08;;;;;;;-2.32;71.84;101945.14;1696101;84;21346;-75
2021/11/18 07:18:43;;;;;;;100.53;55.10;;;;;;;-2.19;71.92;101952.61;1696356;84;20940;-75
2021/11/18 07:21:10;;;;;;;105.40;54.50;;;;;;;-2.07;71.89;101951.91;1696297;84;21521;-75
2021/11/18 07:23:38;;;;;;;95.90;52.95;;;;;;;-2.00;72.09;101947.72;1696469;84;21123;-73
2021/11/18 07:26:06;;;;;;;110.12;66.95;;;;;;;-1.86;72.15;101944.06;1696205;84;21058;-80
2021/11/18 07:28:35;;;;;;;106.60;66.60;;;;;;;-1.78;72.50;101949.75;1666620;84;20884;-82
2021/11/18 07:31:02;;;;;;;93.17;55.20;;;;;;;-1.65;72.52;101948.59;1696663;84;20968;-81
2021/11/18 07:33:33;;;;;;;86.95;46.70;;;;;;;-1.57;72.47;101942.69;1696222;84;20948;-78
2021/11/18 07:36:00;;;;;;;88.65;45.43;;;;;;;-1.50;72.53;101932.91;1696143;84;21138;-79
2021/11/18 07:38:29;;;;;;;83.10;46.02;;;;;;;-1.42;72.63;101937.27;1696360;84;21071;-79
2021/11/18 07:40:57;;;;;;;74.95;41.42;;;;;;;-1.35;72.63;101938.65;1696160;84;20972;-77
2021/11/18 07:43:31;;;;;;;78.72;41.02;;;;;;;-1.25;72.60;101941.73;1696252;84;21453;-78
2021/11/18 07:46:03;;;;;;;81.72;42.20;;;;;;;-1.15;72.54;101935.42;1684787;83;20996;-76
2021/11/18 07:48:37;;;;;;;81.00;45.58;;;;;;;-1.07;72.53;101940.19;1681958;84;21170;-79
2021/11/18 07:51:07;;;;;;;59.45;32.48;;;;;;;-1.00;72.63;101938.14;1696032;83;21007;-78
2021/11/18 07:53:35;;;;;;;58.30;30.52;;;;;;;-0.88;72.74;101942.09;1666895;84;20892;-78
2021/11/18 07:56:02;;;;;;;55.35;31.00;;;;;;;-0.78;72.89;101939.59;1696020;84;20928;-79
2021/11/18 07:58:29;;;;;;;50.25;27.00;;;;;;;-0.68;72.87;101929.81;1696348;84;21589;-80
2021/11/18 08:00:57;;;;;;;49.73;25.23;;;;;;;-0.59;72.84;101934.17;1696053;84;21086;-79
2021/11/18 08:03:30;;;;;;;60.30;29.05;;;;;;;-0.50;72.82;101931.22;1696120;83;20991;-77
2021/11/18 08:06:09;;;;;;;54.25;28.30;;;;;;;-0.39;72.76;101920.13;1696414;84;20988;-80
2021/11/18 08:08:44;;;;;;;47.23;23.38;;;;;;;-0.31;72.68;101911.59;1666774;84;21522;-78
2021/11/18 08:11:08;;;;;;;34.75;20.90;;;;;;;-0.21;72.71;101905.63;1695457;84;20988;-79
2021/11/18 08:13:35;;;;;;;38.80;22.27;;;;;;;-0.13;72.48;101906.97;1696512;84;21115;-80
2021/11/18 08:16:05;;;;;;;32.35;20.48;;;;;;;-0.03;72.25;101893.68;1696044;83;20880;-79
2021/11/18 08:18:34;;;;;;;31.65;20.55;;;;;;;0.05;71.95;101893.29;1695934;83;20960;-79
2021/11/18 08:21:01;;;;;;;37.40;21.02;;;;;;;0.16;71.52;101889.47;1696224;84;20928;-79
2021/11/18 08:23:32;;;;;;;33.20;18.73;;;;;;;0.25;71.23;101892.08;1696205;84;20932;-79
2021/11/18 08:26:02;;;;;;;34.58;20.82;;;;;;;0.34;70.84;101883.50;1696277;83;21159;-77
2021/11/18 08:28:30;;;;;;;37.75;20.77;;;;;;;0.44;70.46;101876.63;1696346;83;20963;-76
2021/11/18 08:30:57;;;;;;;33.75;19.92;;;;;;;0.51;70.07;101886.10;1696186;84;21030;-78
2021/11/18 08:33:24;;;;;;;28.00;19.20;;;;;;;0.59;69.69;101881.39;1696450;84;21362;-76
2021/11/18 08:35:51;;;;;;;28.02;18.07;;;;;;;0.67;69.15;101874.97;1697131;83;21099;-80
2021/11/18 08:38:18;;;;;;;35.60;18.20;;;;;;;0.78;68.78;101877.56;1711658;82;21100;-79
2021/11/18 08:40:52;;;;;;;27.10;18.67;;;;;;;0.85;67.96;101877.99;1701848;84;21427;-80
2021/11/18 08:43:20;;;;;;;24.27;16.45;;;;;;;0.95;67.74;101887.45;1712012;82;20904;-78
2021/11/18 08:45:47;;;;;;;26.02;16.07;;;;;;;1.04;66.33;101882.71;1702011;83;20943;-77
2021/11/18 08:48:15;;;;;;;32.03;17.23;;;;;;;1.13;65.92;101871.52;1711807;82;20888;-75
2021/11/18 08:50:45;;;;;;;32.70;16.52;;;;;;;1.21;65.40;101879.69;1701798;84;21155;-77
2021/11/18 08:53:13;;;;;;;26.87;15.95;;;;;;;1.32;64.80;101873.66;1711632;82;20876;-76
2021/11/18 08:55:43;;;;;;;32.23;16.62;;;;;;;1.38;64.54;101871.94;1701662;83;20923;-80
2021/11/18 08:58:13;;;;;;;28.75;15.32;;;;;;;1.48;63.62;101877.93;1711677;83;20951;-78
2021/11/18 09:00:58;;;;;;;31.05;16.32;;;;;;;1.57;62.22;101870.59;1701070;84;26990;-79
2021/11/18 09:03:29;;;;;;;23.60;14.85;;;;;;;1.70;61.51;101873.57;1710790;82;21141;-81
2021/11/18 09:05:57;;;;;;;22.30;13.58;;;;;;;1.81;60.61;101870.52;1701746;84;20967;-76
2021/11/18 09:08:27;;;;;;;25.50;14.73;;;;;;;1.94;60.19;101866.16;1711507;82;20884;-79
2021/11/18 09:10:56;;;;;;;18.85;11.20;;;;;;;2.06;59.29;101860.91;1682112;84;20919;-79
2021/11/18 09:13:25;;;;;;;24.43;11.28;;;;;;;2.20;57.80;101853.52;1701806;84;21437;-78
2021/11/18 09:15:54;;;;;;;12.80;7.45;;;;;;;2.35;56.58;101849.99;1711486;82;21157;-79
2021/11/18 09:18:23;;;;;;;12.53;6.85;;;;;;;2.45;54.02;101851.22;1702046;83;20916;-82
2021/11/18 09:20:53;;;;;;;12.03;6.22;;;;;;;2.57;51.34;101841.66;1711661;82;20908;-86
2021/11/18 09:23:24;;;;;;;11.30;6.70;;;;;;;2.64;50.13;101832.52;1702052;84;21007;-81
2021/11/18 09:25:51;;;;;;;12.45;7.60;;;;;;;2.73;49.39;101824.27;1684824;82;20959;-82
2021/11/18 09:28:22;;;;;;;15.03;6.70;;;;;;;2.79;48.96;101819.04;1701869;83;22033;-82
2021/11/18 09:30:58;;;;;;;15.10;7.28;;;;;;;2.85;47.75;101813.37;1704967;82;20936;-81
2021/11/18 09:33:28;;;;;;;11.63;6.92;;;;;;;2.94;46.56;101810.28;1702002;84;20987;-81
2021/11/18 09:35:59;;;;;;;13.35;7.40;;;;;;;3.03;45.78;101808.90;1711200;83;20868;-76
2021/11/18 09:38:29;;;;;;;14.13;6.15;;;;;;;3.11;44.72;101812.25;1696200;84;20955;-75
2021/11/18 09:41:27;;;;;;;12.33;6.60;;;;;;;3.20;43.19;101808.30;1696466;84;21139;-73
2021/11/18 09:44:37;;;;;;;12.95;6.22;;;;;;;3.29;42.99;101801.72;1695995;84;21517;-77
2021/11/18 09:47:47;;;;;;;13.70;6.85;;;;;;;3.40;42.47;101800.72;1696416;84;20980;-75
2021/11/18 09:50:22;;;;;;;16.25;8.03;;;;;;;3.51;40.79;101799.75;1696318;83;21017;-76
2021/11/18 09:53:11;;;;;;;15.32;8.10;;;;;;;3.66;40.62;101788.75;1694662;84;20987;-76
2021/11/18 09:56:18;;;;;;;14.90;7.25;;;;;;;3.80;40.93;101783.38;1696086;83;22045;-77
2021/11/18 09:59:02;;;;;;;13.48;7.80;;;;;;;3.95;39.59;101787.08;1696406;83;20873;-75
2021/11/18 10:01:58;;;;;;;17.00;8.95;;;;;;;4.09;38.14;101789.05;1696071;84;20952;-75
2021/11/18 10:04:48;;;;;;;;;;;;;;;4.20;38.56;101781.53;1699054;84;21398;-74
2021/11/18 10:07:41;;;;;;;16.27;10.88;;;;;;;4.28;38.73;101783.13;1696330;84;20114;-74
2021/11/18 10:10:16;;;;;;;14.40;9.63;;;;;;;4.38;38.46;101768.29;1696164;83;21164;-74
2021/11/18 10:13:40;;;;;;;24.07;11.12;;;;;;;4.48;38.82;101767.69;1696133;84;20885;-74
2021/11/18 10:16:22;;;;;;;23.60;12.40;;;;;;;4.55;38.49;101768.00;1673958;83;21400;-74
2021/11/18 10:19:06;;;;;;;23.18;11.78;;;;;;;4.64;38.89;101777.39;1696181;84;21132;-75
2021/11/18 10:21:41;;;;;;;19.50;9.85;;;;;;;4.70;39.07;101774.24;1696372;83;20920;-75
2021/11/18 10:24:18;;;;;;;14.38;9.03;;;;;;;4.81;39.19;101779.70;1696172;83;21109;-75
2021/11/18 10:26:50;;;;;;;13.40;8.45;;;;;;;4.89;38.41;101772.61;1696092;83;20956;-74
2021/11/18 10:29:24;;;;;;;23.73;10.80;;;;;;;4.92;38.92;101770.83;1696190;84;20995;-74
2021/11/18 10:32:02;;;;;;;16.42;9.75;;;;;;;5.01;39.04;101765.06;1696233;83;20941;-74
2021/11/18 10:34:54;;;;;;;15.30;8.98;;;;;;;5.11;38.97;101762.27;1663647;84;21359;-73
2021/11/18 10:37:31;;;;;;;14.78;9.38;;;;;;;5.21;39.10;101768.13;1698962;83;21112;-74
2021/11/18 10:40:13;;;;;;;18.55;9.48;;;;;;;5.33;39.34;101761.83;1711268;82;20979;-74
2021/11/18 10:42:51;;;;;;;14.95;9.95;;;;;;;5.43;39.46;101760.77;1701803;84;21429;-73
2021/11/18 10:45:41;;;;;;;17.37;10.23;;;;;;;5.52;39.83;101754.52;1707454;82;21015;-73
2021/11/18 10:48:20;;;;;;;19.52;11.22;;;;;;;5.62;40.00;101750.82;1701718;84;20979;-74
2021/11/18 10:50:56;;;;;;;18.55;11.12;;;;;;;5.70;40.31;101739.81;1711157;82;21989;-73
2021/11/18 10:53:27;;;;;;;21.52;10.40;;;;;;;5.75;39.84;101740.56;1700125;84;20971;-73
2021/11/18 10:56:08;;;;;;;17.70;10.13;;;;;;;5.81;40.22;101740.89;1711356;83;20920;-75
2021/11/18 10:58:38;;;;;;;21.23;11.12;;;;;;;5.86;40.49;101735.58;1701602;84;20924;-75
2021/11/18 11:01:27;;;;;;;16.48;9.88;;;;;;;5.94;39.99;101732.37;1711403;82;20947;-74
2021/11/18 11:03:58;;;;;;;12.28;9.28;;;;;;;5.96;39.51;101727.56;1711544;82;21623;-75
2021/11/18 11:06:35;;;;;;;16.40;9.15;;;;;;;5.97;38.76;101727.95;1711356;82;20948;-73
2021/11/18 11:09:13;;;;;;;16.48;9.23;;;;;;;5.97;39.06;101725.80;1675662;84;21034;-75
2021/11/18 11:12:03;;;;;;;18.10;10.48;;;;;;;5.97;38.95;101721.45;1711439;82;20912;-77
2021/11/18 11:15:15;;;;;;;17.42;9.15;;;;;;;5.99;39.40;101720.12;1701668;84;21000;-74
2021/11/18 11:18:30;;;;;;;14.47;9.30;;;;;;;5.98;39.56;101717.09;1711307;82;21413;-74
2021/11/18 11:21:37;;;;;;;16.17;8.53;;;;;;;5.98;39.41;101706.25;1701620;84;20963;-73
2021/11/18 11:24:27;;;;;;;16.97;9.45;;;;;;;5.96;39.61;101708.48;1711132;82;21377;-75
2021/11/18 11:27:32;;;;;;;14.35;9.85;;;;;;;5.85;39.51;101696.98;1701959;84;21012;-76
2021/11/18 11:30:29;;;;;;;13.93;9.85;;;;;;;5.77;39.61;101690.63;1711428;82;20943;-74
2021/11/18 11:33:09;;;;;;;14.07;9.13;;;;;;;5.73;40.40;101686.84;1701874;84;21089;-73